Time;durP1;ratioP1;P1;durP2;ratioP2;P2;SDS_P1;SDS_P2;PMS_P1;PMS_P2;Temp;Humidity;BMP_temperature;BMP_pressure;BME280_temperature;BME280_humidity;BME280_pressure;Samples;Min_cycle;Max_cycle;Signal;HPM_P1;HPM_P2
2023/03/30 00:01:19;;;;;;;15.65;9.70;;;13.90;99.90;;;;;;4954508;28;20109;-91
2023/03/30 00:03:46;;;;;;;17.95;9.63;;;13.80;99.90;;;;;;4954213;28;20102;-93
2023/03/30 00:06:19;;;;;;;14.68;8.73;;;13.80;99.90;;;;;;4954548;28;20037;-94
2023/03/30 00:08:45;;;;;;;15.98;8.85;;;13.80;99.90;;;;;;4954698;28;20074;-93
2023/03/30 00:11:14;;;;;;;15.55;8.93;;;13.80;99.90;;;;;;4954131;28;20492;-93
2023/03/30 00:13:40;;;;;;;19.00;9.10;;;13.80;99.90;;;;;;4953611;28;20031;-93
2023/03/30 00:16:09;;;;;;;17.27;9.02;;;13.70;99.90;;;;;;4936725;29;20035;-93
2023/03/30 00:18:35;;;;;;;21.60;8.93;;;13.80;99.90;;;;;;4954053;28;20066;-93
2023/03/30 00:21:02;;;;;;;16.77;9.65;;;13.80;99.90;;;;;;4954264;28;20031;-93
2023/03/30 00:23:29;;;;;;;18.45;8.68;;;13.70;99.90;;;;;;4942720;28;20367;-93
2023/03/30 00:25:55;;;;;;;18.05;9.20;;;13.80;99.90;;;;;;4935048;28;20391;-93
2023/03/30 00:28:20;;;;;;;18.58;8.98;;;13.70;99.90;;;;;;4934753;29;20041;-93
2023/03/30 00:30:47;;;;;;;19.73;8.95;;;13.70;99.90;;;;;;4935904;29;20086;-93
2023/03/30 00:33:13;;;;;;;18.80;9.15;;;13.60;99.90;;;;;;4935211;29;20042;-94
2023/03/30 00:35:39;;;;;;;19.75;8.95;;;13.70;99.90;;;;;;4947797;28;20044;-93
2023/03/30 00:38:05;;;;;;;22.00;8.98;;;13.70;99.90;;;;;;4953672;28;20031;-93
2023/03/30 00:40:32;;;;;;;16.65;7.90;;;13.70;99.90;;;;;;4953476;28;20050;-93
2023/03/30 00:43:03;;;;;;;16.92;8.32;;;13.70;99.90;;;;;;4953960;28;20024;-93
2023/03/30 00:45:30;;;;;;;15.98;9.02;;;13.50;99.90;;;;;;4953459;28;20027;-93
2023/03/30 00:48:10;;;;;;;15.63;7.82;;;13.60;99.90;;;;;;4953659;28;20023;-93
2023/03/30 00:50:44;;;;;;;16.60;8.25;;;13.50;99.90;;;;;;4953246;28;20032;-93
2023/03/30 00:53:19;;;;;;;16.52;7.60;;;13.50;99.90;;;;;;4954059;28;20102;-93
2023/03/30 00:55:48;;;;;;;16.95;8.10;;;13.40;99.90;;;;;;4953036;28;20039;-92
2023/03/30 00:58:15;;;;;;;13.68;8.07;;;13.50;99.90;;;;;;4953574;29;20031;-93
2023/03/30 01:00:42;;;;;;;13.55;7.80;;;13.60;99.90;;;;;;4954057;29;20085;-92
2023/03/30 01:03:17;;;;;;;14.48;7.47;;;13.50;99.90;;;;;;4953544;29;20024;-93
2023/03/30 01:05:44;;;;;;;14.70;8.00;;;13.40;99.90;;;;;;4953124;28;20471;-93
2023/03/30 01:08:15;;;;;;;13.45;7.65;;;13.40;99.90;;;;;;4953759;28;20027;-93
2023/03/30 01:10:42;;;;;;;14.93;7.28;;;13.50;99.90;;;;;;4952962;28;20381;-93
2023/03/30 01:13:08;;;;;;;16.52;7.70;;;13.50;99.90;;;;;;4953134;28;20039;-93
2023/03/30 01:15:39;;;;;;;14.25;7.20;;;13.40;99.90;;;;;;4953341;28;20451;-93
2023/03/30 01:18:09;;;;;;;13.50;6.25;;;13.50;99.90;;;;;;4953581;28;20388;-93
2023/03/30 01:20:54;;;;;;;13.00;6.57;;;13.40;99.90;;;;;;4952969;29;20062;-93
2023/03/30 01:23:52;;;;;;;11.13;6.65;;;13.40;99.90;;;;;;4953392;28;20481;-92
2023/03/30 01:26:32;;;;;;;12.23;6.65;;;13.50;99.90;;;;;;4952434;28;20097;-93
2023/03/30 01:29:14;;;;;;;18.02;7.07;;;13.50;99.90;;;;;;4952981;28;20092;-93
2023/03/30 01:31:45;;;;;;;13.70;6.55;;;13.50;99.90;;;;;;4953341;28;20036;-93
2023/03/30 01:34:29;;;;;;;16.98;6.63;;;13.60;99.90;;;;;;4954168;28;20028;-93
2023/03/30 01:37:07;;;;;;;12.02;5.70;;;13.60;99.90;;;;;;4953080;28;20036;-93
2023/03/30 01:39:53;;;;;;;10.85;6.38;;;13.60;99.90;;;;;;4952593;28;20031;-93
2023/03/30 01:42:34;;;;;;;14.80;6.32;;;13.60;99.90;;;;;;4953224;28;20123;-92
2023/03/30 01:45:28;;;;;;;16.55;6.30;;;13.60;99.90;;;;;;4952638;29;20559;-93
2023/03/30 01:47:57;;;;;;;12.27;6.03;;;13.50;99.90;;;;;;4952891;28;20062;-93
2023/03/30 01:50:47;;;;;;;11.95;6.20;;;13.50;99.90;;;;;;4952200;28;20062;-93
2023/03/30 01:53:27;;;;;;;11.38;6.53;;;13.40;99.90;;;;;;4953919;28;20118;-93
2023/03/30 01:56:19;;;;;;;17.55;6.10;;;13.40;99.90;;;;;;4953174;28;20114;-93
2023/03/30 01:59:11;;;;;;;13.88;6.65;;;13.40;99.90;;;;;;4952560;28;20023;-92
2023/03/30 02:01:40;;;;;;;12.93;5.95;;;13.50;99.90;;;;;;4952877;28;20073;-93
2023/03/30 02:04:09;;;;;;;15.02;6.15;;;13.50;99.90;;;;;;4952711;28;20015;-92
2023/03/30 02:06:43;;;;;;;10.27;6.15;;;13.40;99.90;;;;;;4952329;28;20031;-93
2023/03/30 02:09:20;;;;;;;11.25;5.90;;;13.40;99.90;;;;;;4952168;28;20110;-93
2023/03/30 02:11:49;;;;;;;13.43;5.80;;;13.40;99.90;;;;;;4952684;28;20031;-92
2023/03/30 02:14:16;;;;;;;12.40;5.63;;;13.40;99.90;;;;;;4952284;28;20077;-92
2023/03/30 02:17:17;;;;;;;13.23;5.70;;;13.40;99.90;;;;;;4951923;28;20027;-93
2023/03/30 02:19:46;;;;;;;12.15;6.10;;;13.40;99.90;;;;;;4956279;28;20039;-93
2023/03/30 02:22:14;;;;;;;10.45;5.78;;;13.30;99.90;;;;;;4952924;29;20042;-93
2023/03/30 02:24:42;;;;;;;13.18;5.80;;;13.40;99.90;;;;;;4952147;28;20058;-93
2023/03/30 02:27:08;;;;;;;11.45;6.40;;;13.40;99.90;;;;;;4952154;28;20056;-92
2023/03/30 02:29:37;;;;;;;9.77;6.18;;;13.40;99.90;;;;;;4951908;28;20066;-91
2023/03/30 02:32:04;;;;;;;10.45;5.28;;;13.30;99.90;;;;;;4952361;28;20035;-92
2023/03/30 02:34:35;;;;;;;11.40;5.47;;;13.30;99.90;;;;;;4952125;28;20069;-92
2023/03/30 02:37:26;;;;;;;15.07;6.03;;;13.40;99.90;;;;;;4951942;29;20390;-93
2023/03/30 02:40:11;;;;;;;12.38;5.60;;;13.30;99.90;;;;;;4952101;29;20875;-92
2023/03/30 02:43:07;;;;;;;9.75;5.32;;;13.30;99.90;;;;;;4942737;28;20097;-93
2023/03/30 02:45:54;;;;;;;10.27;5.30;;;13.40;99.90;;;;;;4951873;28;20027;-93
2023/03/30 02:48:38;;;;;;;12.77;5.30;;;13.40;99.90;;;;;;4952109;28;20038;-92
2023/03/30 02:51:09;;;;;;;8.00;3.22;;;13.40;99.90;;;;;;4951021;28;20405;-93
2023/03/30 02:53:51;;;;;;;8.48;4.80;;;13.30;99.90;;;;;;4951239;29;20028;-92
2023/03/30 02:56:23;;;;;;;8.52;4.13;;;13.30;99.90;;;;;;4950928;29;20139;-92
2023/03/30 02:59:02;;;;;;;9.15;4.50;;;13.20;99.90;;;;;;4952028;28;20042;-92
2023/03/30 03:01:33;;;;;;;9.75;3.95;;;13.20;99.90;;;;;;4955597;28;20048;-93
2023/03/30 03:04:02;;;;;;;7.43;3.63;;;13.20;99.90;;;;;;4956087;28;20232;-93
2023/03/30 03:06:28;;;;;;;9.55;3.80;;;13.20;99.90;;;;;;4955194;28;20084;-93
2023/03/30 03:08:55;;;;;;;9.63;4.43;;;13.20;99.90;;;;;;4955644;28;20031;-93
2023/03/30 03:11:21;;;;;;;8.95;3.60;;;13.20;99.90;;;;;;4955858;28;20160;-93
2023/03/30 03:13:47;;;;;;;10.20;3.38;;;13.20;99.90;;;;;;4955415;28;20051;-92
2023/03/30 03:16:13;;;;;;;8.70;2.63;;;13.20;99.90;;;;;;4955518;28;20128;-92
2023/03/30 03:18:40;;;;;;;9.00;2.85;;;13.20;99.90;;;;;;4955694;28;20031;-93
2023/03/30 03:21:06;;;;;;;7.75;2.92;;;13.20;99.90;;;;;;4955328;28;20485;-93
2023/03/30 03:23:33;;;;;;;6.72;2.40;;;13.10;99.90;;;;;;4955395;28;20130;-93
2023/03/30 03:25:59;;;;;;;6.10;2.22;;;13.10;99.90;;;;;;4950059;28;20048;-93
2023/03/30 03:28:28;;;;;;;9.90;2.38;;;13.10;99.90;;;;;;4950724;28;20485;-92
2023/03/30 03:30:55;;;;;;;7.55;2.50;;;13.10;99.90;;;;;;4955151;28;20428;-93
2023/03/30 03:33:21;;;;;;;8.23;2.50;;;13.10;99.90;;;;;;4954850;28;20031;-93
2023/03/30 03:35:47;;;;;;;8.68;2.40;;;13.10;99.90;;;;;;4954433;28;20046;-93
2023/03/30 03:38:13;;;;;;;7.07;2.28;;;13.10;99.90;;;;;;4954694;28;20062;-93
2023/03/30 03:40:39;;;;;;;7.30;2.70;;;13.00;99.90;;;;;;4955157;28;20081;-92
2023/03/30 03:43:05;;;;;;;6.78;2.08;;;13.00;99.90;;;;;;4954601;28;20477;-93
2023/03/30 03:45:31;;;;;;;6.95;1.98;;;13.00;99.90;;;;;;4955246;28;20028;-93
2023/03/30 03:47:57;;;;;;;4.00;1.92;;;13.00;99.90;;;;;;4954767;28;20040;-93
2023/03/30 03:50:23;;;;;;;6.10;1.60;;;13.00;99.90;;;;;;4954555;28;20027;-93
2023/03/30 03:52:48;;;;;;;7.10;2.00;;;13.00;99.90;;;;;;4954467;28;20027;-93
2023/03/30 03:55:14;;;;;;;5.78;1.95;;;13.00;99.90;;;;;;4954779;28;20830;-93
2023/03/30 03:57:40;;;;;;;4.45;1.65;;;13.00;99.90;;;;;;4955234;28;20039;-93
2023/03/30 04:00:15;;;;;;;10.43;2.58;;;13.00;99.90;;;;;;4954758;28;20036;-92
2023/03/30 04:02:41;;;;;;;5.28;1.50;;;13.00;99.90;;;;;;4955383;28;20038;-92
2023/03/30 04:05:07;;;;;;;5.82;2.08;;;13.00;99.90;;;;;;4954312;29;20020;-93
2023/03/30 04:07:34;;;;;;;7.38;2.35;;;13.10;99.90;;;;;;4954596;29;20031;-92
2023/03/30 04:10:00;;;;;;;5.13;1.92;;;13.10;99.90;;;;;;4954527;28;20036;-93
2023/03/30 04:12:28;;;;;;;5.03;1.88;;;13.10;99.90;;;;;;4953776;28;20574;-93
2023/03/30 04:14:54;;;;;;;8.82;2.03;;;13.10;99.90;;;;;;4954448;28;20043;-92
2023/03/30 04:17:24;;;;;;;5.03;1.85;;;13.00;99.90;;;;;;4953891;28;20032;-92
2023/03/30 04:19:52;;;;;;;4.57;1.70;;;13.00;99.90;;;;;;4953912;28;20436;-92
2023/03/30 04:22:25;;;;;;;8.70;2.00;;;13.00;99.90;;;;;;4954388;28;20096;-92
2023/03/30 04:24:51;;;;;;;6.88;2.03;;;13.00;99.90;;;;;;4954188;28;20077;-92
2023/03/30 04:27:17;;;;;;;6.55;1.88;;;13.10;99.90;;;;;;4938919;28;20043;-92
2023/03/30 04:29:43;;;;;;;5.68;2.08;;;13.20;99.90;;;;;;4935209;29;20086;-94
2023/03/30 04:32:11;;;;;;;6.68;2.00;;;13.20;99.90;;;;;;4935464;29;20024;-92
2023/03/30 04:34:41;;;;;;;5.53;1.80;;;13.30;99.90;;;;;;4938889;29;20043;-93
2023/03/30 04:37:10;;;;;;;3.83;1.23;;;13.30;99.90;;;;;;4953991;28;20040;-93
2023/03/30 04:39:36;;;;;;;3.33;1.65;;;13.30;99.90;;;;;;4953986;28;20031;-92
2023/03/30 04:42:03;;;;;;;5.63;1.63;;;13.20;99.90;;;;;;4944489;28;20041;-92
2023/03/30 04:44:29;;;;;;;4.03;1.60;;;13.20;99.90;;;;;;4941097;28;20027;-92
2023/03/30 04:46:55;;;;;;;3.72;1.40;;;13.20;99.90;;;;;;4953940;28;20464;-93
2023/03/30 04:49:21;;;;;;;7.15;1.48;;;13.20;99.90;;;;;;4953641;28;20081;-93
2023/03/30 04:51:47;;;;;;;3.40;1.42;;;13.20;99.90;;;;;;4953980;28;20046;-92
2023/03/30 04:54:13;;;;;;;6.43;1.70;;;13.20;99.90;;;;;;4953866;28;20035;-93
2023/03/30 04:56:38;;;;;;;4.57;1.48;;;13.30;99.90;;;;;;4953572;28;20036;-93
2023/03/30 04:59:04;;;;;;;4.13;1.20;;;13.30;99.90;;;;;;4946462;28;20035;-93
2023/03/30 05:01:30;;;;;;;4.20;1.33;;;13.40;99.90;;;;;;4935335;29;20056;-93
2023/03/30 05:03:56;;;;;;;4.18;1.35;;;13.40;99.90;;;;;;4934105;29;20103;-92
2023/03/30 05:06:21;;;;;;;4.78;1.50;;;13.40;99.90;;;;;;4934829;29;20031;-92
2023/03/30 05:08:47;;;;;;;3.95;1.38;;;13.40;99.90;;;;;;4934321;29;20389;-93
2023/03/30 05:11:13;;;;;;;5.68;1.48;;;13.40;99.90;;;;;;4935042;29;20055;-93
2023/03/30 05:13:39;;;;;;;3.83;1.23;;;13.50;99.90;;;;;;4934562;29;20032;-92
2023/03/30 05:16:05;;;;;;;5.00;1.10;;;13.40;99.90;;;;;;4934517;29;20031;-93
2023/03/30 05:18:31;;;;;;;4.53;1.52;;;13.50;99.90;;;;;;4934035;29;20062;-93
2023/03/30 05:20:58;;;;;;;2.22;1.20;;;13.50;99.90;;;;;;4938703;29;20062;-93
2023/03/30 05:23:24;;;;;;;4.18;1.67;;;13.60;99.90;;;;;;4952155;28;20096;-88
2023/03/30 05:25:50;;;;;;;9.52;2.08;;;13.60;99.90;;;;;;4950025;29;20094;-87
2023/03/30 05:28:18;;;;;;;4.47;1.67;;;13.60;99.90;;;;;;4951432;28;20440;-87
2023/03/30 05:30:45;;;;;;;5.63;1.50;;;13.70;99.90;;;;;;4952243;28;20031;-87
2023/03/30 05:33:11;;;;;;;5.20;1.48;;;13.70;99.90;;;;;;4950975;28;20043;-87
2023/03/30 05:35:37;;;;;;;3.60;1.20;;;13.70;99.90;;;;;;4951835;28;20032;-87
2023/03/30 05:38:03;;;;;;;5.90;1.60;;;13.70;99.90;;;;;;4950905;28;20396;-87
2023/03/30 05:40:29;;;;;;;4.88;1.40;;;13.80;99.90;;;;;;4950616;28;20028;-87
2023/03/30 05:42:55;;;;;;;5.57;1.55;;;13.80;99.90;;;;;;4949856;29;20492;-87
2023/03/30 05:45:20;;;;;;;4.53;1.48;;;13.80;99.90;;;;;;4950832;28;20055;-87
2023/03/30 05:47:50;;;;;;;4.90;1.73;;;13.90;99.90;;;;;;4951007;28;20019;-87
2023/03/30 05:50:16;;;;;;;4.45;1.40;;;13.90;99.90;;;;;;4951110;28;20031;-88
2023/03/30 05:52:41;;;;;;;3.35;1.50;;;14.00;99.90;;;;;;4950051;28;20070;-87
2023/03/30 05:55:07;;;;;;;4.88;1.23;;;13.90;99.90;;;;;;4950581;28;20039;-87
2023/03/30 05:57:33;;;;;;;5.88;1.45;;;14.00;99.90;;;;;;4951318;28;20027;-87
2023/03/30 05:59:59;;;;;;;5.63;1.85;;;13.90;99.90;;;;;;4949556;28;20473;-87
2023/03/30 06:02:26;;;;;;;4.32;1.38;;;13.60;99.90;;;;;;4944346;28;20030;-87
2023/03/30 06:04:52;;;;;;;5.88;1.13;;;14.00;99.90;;;;;;4950825;28;20031;-87
2023/03/30 06:07:19;;;;;;;4.45;1.60;;;14.10;99.90;;;;;;4951089;28;20028;-87
2023/03/30 06:09:45;;;;;;;5.10;1.58;;;14.20;99.90;;;;;;4950568;28;20553;-88
2023/03/30 06:12:11;;;;;;;4.30;1.30;;;14.10;99.90;;;;;;4951272;28;20031;-87
2023/03/30 06:14:36;;;;;;;5.82;1.40;;;14.10;99.90;;;;;;4951313;28;20500;-88
2023/03/30 06:17:02;;;;;;;5.35;1.25;;;14.10;99.90;;;;;;4950642;28;20504;-86
2023/03/30 06:19:28;;;;;;;3.92;1.50;;;14.10;99.90;;;;;;4951090;28;20058;-89
2023/03/30 06:21:53;;;;;;;4.32;1.75;;;14.10;99.90;;;;;;4950563;28;20035;-86
2023/03/30 06:24:20;;;;;;;4.72;1.42;;;14.10;99.90;;;;;;4950702;28;20024;-87
2023/03/30 06:26:47;;;;;;;2.67;1.20;;;14.10;99.90;;;;;;4899886;28;1489775;-86
2023/03/30 06:29:13;;;;;;;3.78;1.25;;;14.10;99.90;;;;;;4951550;28;20042;-87
2023/03/30 06:31:38;;;;;;;10.40;1.42;;;14.20;99.90;;;;;;4951698;28;20027;-87
2023/03/30 06:34:04;;;;;;;4.45;1.15;;;14.20;99.90;;;;;;4952605;28;20039;-90
2023/03/30 06:36:30;;;;;;;4.03;1.40;;;14.20;99.90;;;;;;4951209;28;20052;-87
2023/03/30 06:38:55;;;;;;;4.70;1.45;;;14.20;99.90;;;;;;4950334;28;20070;-87
2023/03/30 06:41:21;;;;;;;5.38;1.20;;;14.30;99.90;;;;;;4949744;28;20054;-86
2023/03/30 06:43:47;;;;;;;4.13;1.85;;;14.20;99.90;;;;;;4951084;28;20417;-88
2023/03/30 06:46:13;;;;;;;3.20;1.35;;;14.20;99.90;;;;;;4949382;28;20046;-86
2023/03/30 06:48:39;;;;;;;3.30;1.58;;;14.30;99.90;;;;;;4951156;28;20070;-86
2023/03/30 06:51:05;;;;;;;5.70;1.90;;;14.30;99.90;;;;;;4951029;28;20055;-86
2023/03/30 06:53:31;;;;;;;3.90;1.25;;;14.30;99.90;;;;;;4951630;28;20031;-86
2023/03/30 06:55:57;;;;;;;5.97;1.63;;;14.30;99.90;;;;;;4951382;28;20485;-86
2023/03/30 06:58:26;;;;;;;4.13;1.40;;;14.30;99.90;;;;;;4950635;28;20125;-86
2023/03/30 07:00:52;;;;;;;4.13;1.30;;;14.30;99.90;;;;;;4949955;29;20038;-86
2023/03/30 07:03:18;;;;;;;6.03;1.50;;;14.30;99.90;;;;;;4951725;28;20035;-86
2023/03/30 07:05:51;;;;;;;2.60;1.20;;;14.30;99.90;;;;;;4951142;28;20039;-86
2023/03/30 07:08:18;;;;;;;2.97;1.33;;;14.40;99.90;;;;;;4951613;28;20023;-86
2023/03/30 07:10:46;;;;;;;3.83;1.42;;;14.40;99.90;;;;;;4950937;28;20428;-86
2023/03/30 07:13:11;;;;;;;6.70;1.58;;;14.40;99.90;;;;;;4949328;28;20034;-86
2023/03/30 07:15:37;;;;;;;3.10;1.40;;;14.50;99.90;;;;;;4949557;28;20031;-86
2023/03/30 07:18:03;;;;;;;4.07;1.35;;;14.40;99.90;;;;;;4950848;28;20031;-86
2023/03/30 07:20:29;;;;;;;7.53;1.40;;;14.30;99.90;;;;;;4951198;28;20023;-86
2023/03/30 07:22:54;;;;;;;7.20;1.95;;;14.40;99.90;;;;;;4950799;28;20461;-86
2023/03/30 07:25:20;;;;;;;3.75;1.40;;;14.40;99.90;;;;;;4950552;28;20512;-86
2023/03/30 07:27:46;;;;;;;4.57;1.63;;;14.40;99.90;;;;;;4931719;28;20036;-87
2023/03/30 07:30:13;;;;;;;5.55;1.67;;;14.50;99.90;;;;;;4932065;29;20032;-86
2023/03/30 07:32:39;;;;;;;3.67;1.70;;;14.70;99.90;;;;;;4931517;29;20032;-86
2023/03/30 07:35:05;;;;;;;5.20;1.65;;;14.90;99.90;;;;;;4931476;29;20096;-86
2023/03/30 07:37:31;;;;;;;4.88;1.30;;;14.80;99.90;;;;;;4930299;29;20393;-86
2023/03/30 07:39:57;;;;;;;5.38;1.58;;;14.70;99.90;;;;;;4931497;29;20111;-86
2023/03/30 07:42:23;;;;;;;6.50;1.70;;;14.70;99.90;;;;;;4931059;29;20031;-86
2023/03/30 07:44:49;;;;;;;4.30;1.40;;;14.80;99.90;;;;;;4934660;28;20031;-86
2023/03/30 07:47:14;;;;;;;6.05;1.83;;;14.70;99.90;;;;;;4953305;28;20017;-86
2023/03/30 07:49:41;;;;;;;8.15;1.60;;;14.70;99.90;;;;;;4954429;28;20023;-86
2023/03/30 07:52:07;;;;;;;5.78;1.85;;;14.60;99.90;;;;;;4953946;28;20027;-86
2023/03/30 07:54:32;;;;;;;7.75;2.00;;;14.60;99.90;;;;;;4952782;29;20527;-85
2023/03/30 07:56:58;;;;;;;4.00;1.63;;;14.60;99.90;;;;;;4953370;28;20043;-86
2023/03/30 07:59:24;;;;;;;6.53;1.50;;;14.70;99.90;;;;;;4953597;28;20102;-86
2023/03/30 08:01:50;;;;;;;4.50;1.38;;;14.80;99.90;;;;;;4953383;28;20104;-86
2023/03/30 08:04:17;;;;;;;5.03;1.27;;;14.90;99.90;;;;;;4952491;28;20023;-86
2023/03/30 08:06:43;;;;;;;4.13;1.63;;;15.00;99.90;;;;;;4954646;28;20038;-87
2023/03/30 08:09:09;;;;;;;6.72;1.98;;;15.00;99.90;;;;;;4953636;28;20023;-86
2023/03/30 08:11:35;;;;;;;5.63;1.90;;;15.00;99.90;;;;;;4951949;28;20080;-86
2023/03/30 08:14:02;;;;;;;4.47;1.50;;;15.20;99.90;;;;;;4953172;28;20032;-86
2023/03/30 08:16:28;;;;;;;4.80;1.73;;;15.60;99.90;;;;;;4953374;28;20043;-86
2023/03/30 08:18:54;;;;;;;4.53;1.73;;;15.70;99.90;;;;;;4954362;28;20415;-86
2023/03/30 08:21:25;;;;;;;3.85;1.75;;;15.70;99.90;;;;;;4953411;28;20106;-86
2023/03/30 08:23:54;;;;;;;4.53;1.60;;;15.20;99.90;;;;;;4953395;28;20049;-86
2023/03/30 08:26:20;;;;;;;5.82;1.52;;;15.20;99.90;;;;;;4945119;28;20055;-86
2023/03/30 08:28:46;;;;;;;10.77;1.73;;;15.30;99.90;;;;;;4934826;29;20028;-86
2023/03/30 08:31:11;;;;;;;6.18;1.70;;;15.30;99.90;;;;;;4934338;29;20091;-86
2023/03/30 08:33:38;;;;;;;4.70;1.80;;;15.30;99.90;;;;;;4934066;29;20024;-86
2023/03/30 08:36:04;;;;;;;5.03;1.60;;;15.40;99.90;;;;;;4932756;29;20447;-86
2023/03/30 08:38:30;;;;;;;2.92;1.60;;;15.60;99.90;;;;;;4934218;29;20135;-86
2023/03/30 08:40:56;;;;;;;3.38;1.60;;;15.80;99.90;;;;;;4933568;29;20040;-86
2023/03/30 08:43:49;;;;;;;6.90;1.88;;;15.70;99.90;;;;;;4933892;29;20044;-87
2023/03/30 08:46:17;;;;;;;4.85;1.75;;;15.90;99.90;;;;;;4947691;29;20019;-86
2023/03/30 08:48:45;;;;;;;5.97;2.10;;;16.20;99.90;;;;;;4951676;28;20370;-86
2023/03/30 08:51:18;;;;;;;4.57;2.15;;;16.00;99.90;;;;;;4952995;28;20371;-86
2023/03/30 08:53:44;;;;;;;4.93;1.52;;;15.90;99.90;;;;;;4952731;28;20477;-86
2023/03/30 08:56:20;;;;;;;3.10;1.60;;;15.70;99.90;;;;;;4952586;28;20039;-86
2023/03/30 08:58:57;;;;;;;5.20;1.85;;;15.90;99.90;;;;;;4951587;28;20066;-86
2023/03/30 09:01:43;;;;;;;3.67;1.65;;;16.10;99.90;;;;;;4952773;28;20035;-86
2023/03/30 09:04:18;;;;;;;4.00;1.60;;;15.90;99.90;;;;;;4952711;28;20485;-86
2023/03/30 09:06:52;;;;;;;4.10;1.42;;;16.10;99.90;;;;;;4951530;28;20031;-86
2023/03/30 09:09:23;;;;;;;6.88;1.70;;;16.50;99.90;;;;;;4952637;28;20030;-86
2023/03/30 09:12:23;;;;;;;7.47;2.17;;;16.60;99.90;;;;;;4952256;28;20401;-86
2023/03/30 09:14:54;;;;;;;6.38;1.95;;;16.80;99.90;;;;;;4950376;29;20050;-86
2023/03/30 09:17:28;;;;;;;4.68;1.70;;;16.90;99.90;;;;;;4950530;29;20050;-86
2023/03/30 09:19:59;;;;;;;4.18;1.88;;;16.90;99.90;;;;;;4950267;29;20043;-86
2023/03/30 09:22:31;;;;;;;4.80;1.77;;;16.80;99.90;;;;;;4950146;29;20077;-86
2023/03/30 09:24:58;;;;;;;3.25;1.55;;;17.00;99.90;;;;;;4950316;29;20111;-86
2023/03/30 09:27:32;;;;;;;4.45;1.85;;;17.20;99.90;;;;;;4933867;29;20525;-86
2023/03/30 09:30:07;;;;;;;4.35;1.80;;;17.30;99.90;;;;;;4950090;29;20034;-86
2023/03/30 09:32:40;;;;;;;5.13;1.70;;;17.60;99.90;;;;;;4950042;29;20043;-86
2023/03/30 09:35:13;;;;;;;8.55;2.00;;;17.30;99.90;;;;;;4949996;29;20578;-86
2023/03/30 09:37:38;;;;;;;3.88;1.48;;;17.50;99.90;;;;;;4949878;29;20040;-86
2023/03/30 09:40:24;;;;;;;4.75;1.65;;;17.60;99.90;;;;;;4950261;29;20028;-86
2023/03/30 09:43:08;;;;;;;4.72;2.00;;;17.70;99.90;;;;;;4933786;29;20032;-86
2023/03/30 09:45:34;;;;;;;5.13;2.10;;;17.90;99.90;;;;;;4949648;29;20074;-87
2023/03/30 09:48:07;;;;;;;4.45;1.90;;;18.20;99.90;;;;;;4949940;29;20027;-86
2023/03/30 09:50:42;;;;;;;5.00;1.85;;;18.10;99.90;;;;;;4949198;29;20066;-86
2023/03/30 09:53:26;;;;;;;4.72;1.98;;;17.70;99.90;;;;;;4932562;29;20028;-86
2023/03/30 09:56:09;;;;;;;3.97;1.92;;;17.40;99.90;;;;;;4931474;29;20032;-86
2023/03/30 09:58:35;;;;;;;4.93;1.90;;;17.10;99.90;;;;;;4932485;29;20521;-86
2023/03/30 10:01:05;;;;;;;4.72;1.90;;;17.10;99.90;;;;;;4931448;29;20035;-86
2023/03/30 10:03:32;;;;;;;4.20;1.77;;;17.10;99.90;;;;;;4931620;28;20033;-87
2023/03/30 10:06:11;;;;;;;4.57;1.92;;;16.90;99.90;;;;;;4932924;29;20067;-86
2023/03/30 10:08:57;;;;;;;5.30;1.70;;;17.00;99.90;;;;;;4932448;29;20027;-86
2023/03/30 10:11:32;;;;;;;6.28;2.13;;;17.00;99.90;;;;;;4932257;29;20051;-87
2023/03/30 10:13:58;;;;;;;6.47;1.80;;;17.00;99.90;;;;;;4932493;28;20565;-86
2023/03/30 10:16:31;;;;;;;4.50;1.90;;;16.90;99.90;;;;;;4932286;29;20083;-87
2023/03/30 10:19:03;;;;;;;3.47;1.80;;;17.00;99.90;;;;;;4932890;29;20020;-86
2023/03/30 10:21:35;;;;;;;4.22;1.70;;;17.00;99.90;;;;;;4932010;29;20105;-86
2023/03/30 10:24:20;;;;;;;5.07;1.90;;;16.90;99.90;;;;;;4932480;29;20050;-86
2023/03/30 10:26:49;;;;;;;5.05;1.70;;;17.00;99.90;;;;;;4932047;28;20051;-86
2023/03/30 10:29:20;;;;;;;4.65;2.05;;;17.00;99.90;;;;;;4932375;29;20429;-86
2023/03/30 10:31:48;;;;;;;2.90;1.90;;;16.90;99.90;;;;;;4933001;29;20036;-86
2023/03/30 10:34:34;;;;;;;5.10;1.80;;;17.00;99.90;;;;;;4931025;29;20055;-86
2023/03/30 10:36:59;;;;;;;4.80;1.88;;;17.20;99.90;;;;;;4932234;29;20075;-86
2023/03/30 10:39:29;;;;;;;5.53;1.85;;;17.20;99.90;;;;;;4931051;29;20150;-86
2023/03/30 10:41:56;;;;;;;4.88;1.80;;;17.60;99.90;;;;;;4932004;29;20497;-86
2023/03/30 10:44:30;;;;;;;3.78;1.90;;;18.10;99.90;;;;;;4932560;29;20039;-86
2023/03/30 10:47:23;;;;;;;6.78;2.00;;;18.30;99.90;;;;;;4930849;28;20444;-85
2023/03/30 10:50:06;;;;;;;4.22;1.88;;;18.60;99.90;;;;;;4932108;28;20028;-86
2023/03/30 10:52:51;;;;;;;8.07;1.90;;;18.80;99.90;;;;;;4931952;29;20468;-87
2023/03/30 10:55:29;;;;;;;7.10;2.13;;;19.60;99.90;;;;;;4931831;28;20035;-86
2023/03/30 10:58:17;;;;;;;4.00;1.90;;;19.10;99.90;;;;;;4931913;28;20409;-86
2023/03/30 11:00:48;;;;;;;6.28;3.50;;;19.20;99.90;;;;;;4932014;29;20051;-86
2023/03/30 11:03:26;;;;;;;6.90;2.20;;;18.90;99.90;;;;;;4932283;29;20032;-86
2023/03/30 11:06:04;;;;;;;4.80;1.83;;;18.60;99.90;;;;;;4930452;29;20038;-86
2023/03/30 11:08:36;;;;;;;4.88;2.10;;;18.20;99.90;;;;;;4930581;29;20023;-86
2023/03/30 11:11:02;;;;;;;5.63;2.10;;;17.80;99.90;;;;;;4932143;29;20103;-87
2023/03/30 11:13:38;;;;;;;4.32;2.10;;;17.70;99.90;;;;;;4931998;29;20032;-86
2023/03/30 11:16:15;;;;;;;6.28;2.40;;;17.70;99.90;;;;;;4932160;28;20036;-85
2023/03/30 11:19:30;;;;;;;3.65;1.85;;;17.80;99.90;;;;;;4931552;28;20111;-85
2023/03/30 11:22:24;;;;;;;5.38;1.92;;;17.80;99.90;;;;;;4933435;28;20122;-85
2023/03/30 11:24:54;;;;;;;4.20;2.10;;;17.90;99.90;;;;;;4935168;29;20055;-85
2023/03/30 11:27:38;;;;;;;5.70;2.25;;;18.20;99.90;;;;;;4934592;28;20055;-85
2023/03/30 11:30:19;;;;;;;5.05;2.45;;;18.50;99.90;;;;;;4934890;29;20034;-85
2023/03/30 11:32:48;;;;;;;3.95;2.38;;;18.90;99.90;;;;;;4934860;29;20027;-85
2023/03/30 11:35:25;;;;;;;5.32;2.30;;;20.50;99.90;;;;;;4934262;29;20046;-86
2023/03/30 11:38:09;;;;;;;6.65;2.40;;;21.50;99.90;;;;;;4933450;29;20039;-85
2023/03/30 11:40:45;;;;;;;5.38;2.53;;;21.40;99.90;;;;;;4935062;29;20028;-86
2023/03/30 11:43:22;;;;;;;4.75;2.33;;;21.50;99.90;;;;;;4934728;29;20032;-85
2023/03/30 11:45:50;;;;;;;5.95;2.17;;;20.50;99.90;;;;;;4945346;29;20031;-86
2023/03/30 11:48:37;;;;;;;6.30;2.35;;;20.30;99.90;;;;;;4953827;28;20032;-85
2023/03/30 11:51:27;;;;;;;6.32;2.78;;;18.90;99.90;;;;;;4954056;28;20371;-85
2023/03/30 11:54:07;;;;;;;5.35;2.50;;;19.10;99.90;;;;;;4954087;28;20015;-85
2023/03/30 11:56:45;;;;;;;4.28;2.33;;;22.40;99.90;;;;;;4953417;28;20043;-86
2023/03/30 11:59:30;;;;;;;6.03;2.60;;;20.80;99.90;;;;;;4953601;28;20020;-85
2023/03/30 12:02:18;;;;;;;5.60;2.30;;;20.20;99.90;;;;;;4953923;28;20031;-85
2023/03/30 12:04:55;;;;;;;6.00;2.22;;;20.00;99.90;;;;;;4953888;28;20035;-85
2023/03/30 12:07:39;;;;;;;6.45;2.60;;;19.80;99.90;;;;;;4953647;28;20061;-85
2023/03/30 12:10:16;;;;;;;5.10;2.30;;;19.80;99.90;;;;;;4953825;28;20054;-85
2023/03/30 12:12:43;;;;;;;4.47;2.17;;;21.40;99.90;;;;;;4953225;28;20034;-85
2023/03/30 12:15:22;;;;;;;4.60;2.35;;;22.60;99.90;;;;;;4953412;28;20456;-85
2023/03/30 12:17:53;;;;;;;4.97;2.00;;;22.30;99.90;;;;;;4952972;28;20039;-86
2023/03/30 12:20:31;;;;;;;7.13;2.30;;;23.10;99.90;;;;;;4952145;29;20401;-86
2023/03/30 12:23:19;;;;;;;4.85;2.30;;;23.10;99.90;;;;;;4953125;28;20031;-85
2023/03/30 12:25:48;;;;;;;8.48;2.55;;;21.80;99.90;;;;;;4949964;28;20101;-85
2023/03/30 12:28:16;;;;;;;7.18;2.58;;;20.60;99.90;;;;;;4933917;29;20054;-86
2023/03/30 12:30:57;;;;;;;7.03;2.80;;;20.70;99.90;;;;;;4934529;29;20032;-85
2023/03/30 12:33:32;;;;;;;5.18;2.50;;;21.60;99.90;;;;;;4933824;29;20111;-85
2023/03/30 12:36:00;;;;;;;4.05;2.05;;;21.30;99.90;;;;;;4933864;29;20039;-85
2023/03/30 12:38:39;;;;;;;7.35;2.70;;;20.80;99.90;;;;;;4933611;29;20035;-85
2023/03/30 12:41:14;;;;;;;5.13;2.53;;;21.20;99.90;;;;;;4934255;28;20493;-85
2023/03/30 12:44:22;;;;;;;6.15;2.53;;;22.90;99.90;;;;;;4934312;29;20032;-88
2023/03/30 12:47:11;;;;;;;5.80;2.20;;;22.30;99.90;;;;;;4951898;29;20067;-85
2023/03/30 12:49:56;;;;;;;5.97;2.47;;;21.40;99.90;;;;;;4952749;28;20034;-85
2023/03/30 12:52:22;;;;;;;4.40;2.30;;;22.40;99.90;;;;;;4952718;28;20061;-86
2023/03/30 12:55:17;;;;;;;5.13;2.20;;;22.20;99.90;;;;;;4952912;28;20094;-86
2023/03/30 12:58:20;;;;;;;6.95;2.90;;;21.60;99.90;;;;;;4952761;28;20035;-85
2023/03/30 13:01:06;;;;;;;4.75;2.22;;;21.60;99.90;;;;;;4952398;28;20035;-85
2023/03/30 13:03:54;;;;;;;6.53;2.38;;;21.30;99.90;;;;;;4952383;29;20112;-86
2023/03/30 13:06:31;;;;;;;4.13;2.05;;;21.70;99.90;;;;;;4951782;28;20043;-85
2023/03/30 13:09:18;;;;;;;5.05;2.20;;;22.40;99.90;;;;;;4952765;28;20034;-85